sensor_id;sensor_type;location;lat;lon;timestamp;temperature;humidity
18321;DHT22;54904;54.350;18.664;2023-03-19T00:02:10;10.40;82.50
18321;DHT22;54904;54.350;18.664;2023-03-19T00:04:37;10.30;82.30
18321;DHT22;54904;54.350;18.664;2023-03-19T00:07:04;10.30;82.40
18321;DHT22;54904;54.350;18.664;2023-03-19T00:09:32;10.30;82.50
18321;DHT22;54904;54.350;18.664;2023-03-19T00:11:59;10.30;82.70
18321;DHT22;54904;54.350;18.664;2023-03-19T00:14:26;10.30;82.60
18321;DHT22;54904;54.350;18.664;2023-03-19T00:16:54;10.20;82.50
18321;DHT22;54904;54.350;18.664;2023-03-19T00:19:22;10.20;82.60
18321;DHT22;54904;54.350;18.664;2023-03-19T00:21:49;10.20;82.60
18321;DHT22;54904;54.350;18.664;2023-03-19T00:24:16;10.10;82.50
18321;DHT22;54904;54.350;18.664;2023-03-19T00:26:43;10.10;83.40
18321;DHT22;54904;54.350;18.664;2023-03-19T00:29:10;10.10;82.70
18321;DHT22;54904;54.350;18.664;2023-03-19T00:31:39;10.10;82.80
18321;DHT22;54904;54.350;18.664;2023-03-19T00:34:08;10.10;82.80
18321;DHT22;54904;54.350;18.664;2023-03-19T00:36:36;10.10;82.80
18321;DHT22;54904;54.350;18.664;2023-03-19T00:39:04;10.10;82.80
18321;DHT22;54904;54.350;18.664;2023-03-19T00:41:34;10.00;82.70
18321;DHT22;54904;54.350;18.664;2023-03-19T00:44:01;10.10;83.00
18321;DHT22;54904;54.350;18.664;2023-03-19T00:46:29;10.00;82.80
18321;DHT22;54904;54.350;18.664;2023-03-19T00:48:56;10.00;82.90
18321;DHT22;54904;54.350;18.664;2023-03-19T00:51:25;10.00;83.00
18321;DHT22;54904;54.350;18.664;2023-03-19T00:53:52;10.00;83.10
18321;DHT22;54904;54.350;18.664;2023-03-19T00:56:19;10.00;83.20
18321;DHT22;54904;54.350;18.664;2023-03-19T00:58:47;10.00;83.20
18321;DHT22;54904;54.350;18.664;2023-03-19T01:01:16;10.00;83.30
18321;DHT22;54904;54.350;18.664;2023-03-19T01:03:44;10.00;83.30
18321;DHT22;54904;54.350;18.664;2023-03-19T01:06:12;10.00;83.30
18321;DHT22;54904;54.350;18.664;2023-03-19T01:08:41;10.00;83.30
18321;DHT22;54904;54.350;18.664;2023-03-19T01:11:09;10.00;83.30
18321;DHT22;54904;54.350;18.664;2023-03-19T01:13:37;9.90;84.30
18321;DHT22;54904;54.350;18.664;2023-03-19T01:16:04;9.90;84.30
18321;DHT22;54904;54.350;18.664;2023-03-19T01:18:32;9.90;84.40
18321;DHT22;54904;54.350;18.664;2023-03-19T01:21:00;9.90;84.40
18321;DHT22;54904;54.350;18.664;2023-03-19T01:23:28;9.90;84.50
18321;DHT22;54904;54.350;18.664;2023-03-19T01:25:57;9.90;84.60
18321;DHT22;54904;54.350;18.664;2023-03-19T01:28:26;9.90;84.60
18321;DHT22;54904;54.350;18.664;2023-03-19T01:30:58;9.90;84.80
18321;DHT22;54904;54.350;18.664;2023-03-19T01:33:31;9.90;84.80
18321;DHT22;54904;54.350;18.664;2023-03-19T01:36:09;9.90;84.80
18321;DHT22;54904;54.350;18.664;2023-03-19T01:38:56;9.90;84.80
18321;DHT22;54904;54.350;18.664;2023-03-19T01:41:25;9.90;84.80
18321;DHT22;54904;54.350;18.664;2023-03-19T01:43:56;9.90;84.90
18321;DHT22;54904;54.350;18.664;2023-03-19T01:46:48;9.90;84.90
18321;DHT22;54904;54.350;18.664;2023-03-19T01:49:41;9.90;85.60
18321;DHT22;54904;54.350;18.664;2023-03-19T01:52:17;9.80;84.90
18321;DHT22;54904;54.350;18.664;2023-03-19T01:55:08;9.80;85.00
18321;DHT22;54904;54.350;18.664;2023-03-19T01:57:56;9.70;85.00
18321;DHT22;54904;54.350;18.664;2023-03-19T02:00:56;9.70;85.10
18321;DHT22;54904;54.350;18.664;2023-03-19T02:03:24;9.60;85.80
18321;DHT22;54904;54.350;18.664;2023-03-19T02:06:12;9.60;85.20
18321;DHT22;54904;54.350;18.664;2023-03-19T02:08:40;9.60;85.20
18321;DHT22;54904;54.350;18.664;2023-03-19T02:11:08;9.60;85.20
18321;DHT22;54904;54.350;18.664;2023-03-19T02:13:37;9.50;85.30
18321;DHT22;54904;54.350;18.664;2023-03-19T02:16:05;9.50;85.40
18321;DHT22;54904;54.350;18.664;2023-03-19T02:18:33;9.50;85.50
18321;DHT22;54904;54.350;18.664;2023-03-19T02:21:08;9.50;85.60
18321;DHT22;54904;54.350;18.664;2023-03-19T02:23:40;9.50;85.60
18321;DHT22;54904;54.350;18.664;2023-03-19T02:26:19;9.50;85.60
18321;DHT22;54904;54.350;18.664;2023-03-19T02:28:50;9.50;85.60
18321;DHT22;54904;54.350;18.664;2023-03-19T02:31:26;9.50;85.60
18321;DHT22;54904;54.350;18.664;2023-03-19T02:33:58;9.50;85.60
18321;DHT22;54904;54.350;18.664;2023-03-19T02:36:29;9.50;85.60
18321;DHT22;54904;54.350;18.664;2023-03-19T02:39:00;9.50;85.60
18321;DHT22;54904;54.350;18.664;2023-03-19T02:41:30;9.40;85.60
18321;DHT22;54904;54.350;18.664;2023-03-19T02:44:01;9.40;85.70
18321;DHT22;54904;54.350;18.664;2023-03-19T02:46:30;9.40;85.80
18321;DHT22;54904;54.350;18.664;2023-03-19T02:48:57;9.30;85.80
18321;DHT22;54904;54.350;18.664;2023-03-19T02:51:24;9.30;86.00
18321;DHT22;54904;54.350;18.664;2023-03-19T02:53:52;9.20;86.00
18321;DHT22;54904;54.350;18.664;2023-03-19T02:56:19;9.20;86.10
18321;DHT22;54904;54.350;18.664;2023-03-19T02:58:47;9.20;86.20
18321;DHT22;54904;54.350;18.664;2023-03-19T03:01:14;9.20;86.40
18321;DHT22;54904;54.350;18.664;2023-03-19T03:03:42;9.20;86.30
18321;DHT22;54904;54.350;18.664;2023-03-19T03:06:09;9.20;86.30
18321;DHT22;54904;54.350;18.664;2023-03-19T03:08:36;9.10;86.20
18321;DHT22;54904;54.350;18.664;2023-03-19T03:11:04;9.10;86.20
18321;DHT22;54904;54.350;18.664;2023-03-19T03:13:32;9.20;86.40
18321;DHT22;54904;54.350;18.664;2023-03-19T03:16:02;9.10;86.20
18321;DHT22;54904;54.350;18.664;2023-03-19T03:18:29;9.10;86.20
18321;DHT22;54904;54.350;18.664;2023-03-19T03:20:56;9.10;86.30
18321;DHT22;54904;54.350;18.664;2023-03-19T03:23:23;9.10;86.30
18321;DHT22;54904;54.350;18.664;2023-03-19T03:25:51;9.00;86.40
18321;DHT22;54904;54.350;18.664;2023-03-19T03:28:18;9.00;86.50
18321;DHT22;54904;54.350;18.664;2023-03-19T03:30:46;9.00;86.70
18321;DHT22;54904;54.350;18.664;2023-03-19T03:33:15;9.00;86.40
18321;DHT22;54904;54.350;18.664;2023-03-19T03:35:42;9.00;86.60
18321;DHT22;54904;54.350;18.664;2023-03-19T03:38:10;9.00;86.60
18321;DHT22;54904;54.350;18.664;2023-03-19T03:40:37;9.00;86.70
18321;DHT22;54904;54.350;18.664;2023-03-19T03:43:04;8.90;86.70
18321;DHT22;54904;54.350;18.664;2023-03-19T03:45:33;8.90;86.80
18321;DHT22;54904;54.350;18.664;2023-03-19T03:48:01;8.90;86.80
18321;DHT22;54904;54.350;18.664;2023-03-19T03:50:30;8.90;86.90
18321;DHT22;54904;54.350;18.664;2023-03-19T03:53:02;8.90;86.90
18321;DHT22;54904;54.350;18.664;2023-03-19T03:55:29;8.90;86.90
18321;DHT22;54904;54.350;18.664;2023-03-19T03:57:57;8.90;87.00
18321;DHT22;54904;54.350;18.664;2023-03-19T04:00:25;8.90;87.10
18321;DHT22;54904;54.350;18.664;2023-03-19T04:02:52;8.90;87.10
18321;DHT22;54904;54.350;18.664;2023-03-19T04:05:19;8.90;87.10
18321;DHT22;54904;54.350;18.664;2023-03-19T04:07:50;8.90;87.10
18321;DHT22;54904;54.350;18.664;2023-03-19T04:10:18;8.80;87.00
18321;DHT22;54904;54.350;18.664;2023-03-19T04:12:46;8.90;87.20
18321;DHT22;54904;54.350;18.664;2023-03-19T04:15:13;8.80;87.10
18321;DHT22;54904;54.350;18.664;2023-03-19T04:17:43;8.80;87.20
18321;DHT22;54904;54.350;18.664;2023-03-19T04:20:11;8.80;87.20
18321;DHT22;54904;54.350;18.664;2023-03-19T04:22:41;8.80;87.30
18321;DHT22;54904;54.350;18.664;2023-03-19T04:25:10;8.80;87.30
18321;DHT22;54904;54.350;18.664;2023-03-19T04:27:39;8.80;87.40
18321;DHT22;54904;54.350;18.664;2023-03-19T04:30:08;8.80;87.40
18321;DHT22;54904;54.350;18.664;2023-03-19T04:32:36;8.80;87.40
18321;DHT22;54904;54.350;18.664;2023-03-19T04:35:04;8.70;87.30
18321;DHT22;54904;54.350;18.664;2023-03-19T04:37:31;8.70;87.40
18321;DHT22;54904;54.350;18.664;2023-03-19T04:39:59;8.70;87.40
18321;DHT22;54904;54.350;18.664;2023-03-19T04:42:28;8.70;87.40
18321;DHT22;54904;54.350;18.664;2023-03-19T04:45:15;8.70;87.50
18321;DHT22;54904;54.350;18.664;2023-03-19T04:47:43;8.60;87.50
18321;DHT22;54904;54.350;18.664;2023-03-19T04:50:10;8.60;87.60
18321;DHT22;54904;54.350;18.664;2023-03-19T04:52:40;8.60;87.70
18321;DHT22;54904;54.350;18.664;2023-03-19T04:55:08;8.60;87.80
18321;DHT22;54904;54.350;18.664;2023-03-19T04:57:48;8.50;87.80
18321;DHT22;54904;54.350;18.664;2023-03-19T05:00:17;8.60;88.00
18321;DHT22;54904;54.350;18.664;2023-03-19T05:02:48;8.50;87.80
18321;DHT22;54904;54.350;18.664;2023-03-19T05:05:15;8.50;87.90
18321;DHT22;54904;54.350;18.664;2023-03-19T05:07:42;8.50;87.90
18321;DHT22;54904;54.350;18.664;2023-03-19T05:10:10;8.50;88.00
18321;DHT22;54904;54.350;18.664;2023-03-19T05:12:39;8.50;88.20
18321;DHT22;54904;54.350;18.664;2023-03-19T05:15:10;8.50;88.30
18321;DHT22;54904;54.350;18.664;2023-03-19T05:17:44;8.50;88.50
18321;DHT22;54904;54.350;18.664;2023-03-19T05:20:20;8.50;88.50
18321;DHT22;54904;54.350;18.664;2023-03-19T05:22:56;8.50;88.50
18321;DHT22;54904;54.350;18.664;2023-03-19T05:25:35;8.50;88.60
18321;DHT22;54904;54.350;18.664;2023-03-19T05:28:05;8.50;88.50
18321;DHT22;54904;54.350;18.664;2023-03-19T05:30:35;8.50;88.60
18321;DHT22;54904;54.350;18.664;2023-03-19T05:33:07;8.50;88.60
18321;DHT22;54904;54.350;18.664;2023-03-19T05:35:40;8.50;88.60
18321;DHT22;54904;54.350;18.664;2023-03-19T05:38:15;8.50;88.60
18321;DHT22;54904;54.350;18.664;2023-03-19T05:40:48;8.50;88.80
18321;DHT22;54904;54.350;18.664;2023-03-19T05:43:31;8.50;88.80
18321;DHT22;54904;54.350;18.664;2023-03-19T05:46:03;8.50;88.70
18321;DHT22;54904;54.350;18.664;2023-03-19T05:48:32;8.50;88.70
18321;DHT22;54904;54.350;18.664;2023-03-19T05:51:02;8.50;88.80
18321;DHT22;54904;54.350;18.664;2023-03-19T05:53:34;8.50;88.90
18321;DHT22;54904;54.350;18.664;2023-03-19T05:56:24;8.50;88.80
18321;DHT22;54904;54.350;18.664;2023-03-19T05:59:11;8.60;88.90
18321;DHT22;54904;54.350;18.664;2023-03-19T06:01:44;8.60;88.90
18321;DHT22;54904;54.350;18.664;2023-03-19T06:04:11;8.60;89.00
18321;DHT22;54904;54.350;18.664;2023-03-19T06:06:38;8.70;88.90
18321;DHT22;54904;54.350;18.664;2023-03-19T06:09:05;8.70;88.90
18321;DHT22;54904;54.350;18.664;2023-03-19T06:11:39;8.70;88.80
18321;DHT22;54904;54.350;18.664;2023-03-19T06:14:25;8.70;88.90
18321;DHT22;54904;54.350;18.664;2023-03-19T06:17:14;8.70;88.90
18321;DHT22;54904;54.350;18.664;2023-03-19T06:19:42;8.70;88.90
18321;DHT22;54904;54.350;18.664;2023-03-19T06:22:09;8.70;88.90
18321;DHT22;54904;54.350;18.664;2023-03-19T06:24:36;8.80;89.00
18321;DHT22;54904;54.350;18.664;2023-03-19T06:27:04;8.80;89.00
18321;DHT22;54904;54.350;18.664;2023-03-19T06:29:31;8.80;89.10
18321;DHT22;54904;54.350;18.664;2023-03-19T06:32:10;8.90;89.20
18321;DHT22;54904;54.350;18.664;2023-03-19T06:34:42;8.80;89.80
18321;DHT22;54904;54.350;18.664;2023-03-19T06:37:10;8.80;89.30
18321;DHT22;54904;54.350;18.664;2023-03-19T06:39:37;8.80;89.50
18321;DHT22;54904;54.350;18.664;2023-03-19T06:42:04;8.80;89.50
18321;DHT22;54904;54.350;18.664;2023-03-19T06:44:32;8.90;89.60
18321;DHT22;54904;54.350;18.664;2023-03-19T06:47:00;8.90;89.60
18321;DHT22;54904;54.350;18.664;2023-03-19T06:49:27;9.00;89.60
18321;DHT22;54904;54.350;18.664;2023-03-19T06:51:56;9.00;89.50
18321;DHT22;54904;54.350;18.664;2023-03-19T06:54:23;9.10;89.70
18321;DHT22;54904;54.350;18.664;2023-03-19T06:56:50;9.10;89.80
18321;DHT22;54904;54.350;18.664;2023-03-19T06:59:17;9.10;89.90
18321;DHT22;54904;54.350;18.664;2023-03-19T07:01:44;9.10;89.90
18321;DHT22;54904;54.350;18.664;2023-03-19T07:04:12;9.20;90.00
18321;DHT22;54904;54.350;18.664;2023-03-19T07:06:39;9.20;90.00
18321;DHT22;54904;54.350;18.664;2023-03-19T07:09:08;9.20;90.00
18321;DHT22;54904;54.350;18.664;2023-03-19T07:11:35;9.30;90.10
18321;DHT22;54904;54.350;18.664;2023-03-19T07:14:03;9.30;90.20
18321;DHT22;54904;54.350;18.664;2023-03-19T07:16:30;9.30;90.30
18321;DHT22;54904;54.350;18.664;2023-03-19T07:18:57;9.30;90.70
18321;DHT22;54904;54.350;18.664;2023-03-19T07:21:24;9.40;90.40
18321;DHT22;54904;54.350;18.664;2023-03-19T07:23:52;9.50;90.40
18321;DHT22;54904;54.350;18.664;2023-03-19T07:26:20;9.50;90.50
18321;DHT22;54904;54.350;18.664;2023-03-19T07:28:47;9.60;90.50
18321;DHT22;54904;54.350;18.664;2023-03-19T07:31:14;9.60;90.50
18321;DHT22;54904;54.350;18.664;2023-03-19T07:33:42;9.70;90.50
18321;DHT22;54904;54.350;18.664;2023-03-19T07:36:09;9.70;90.50
18321;DHT22;54904;54.350;18.664;2023-03-19T07:38:37;9.70;90.50
18321;DHT22;54904;54.350;18.664;2023-03-19T07:41:04;9.80;90.50
18321;DHT22;54904;54.350;18.664;2023-03-19T07:43:32;9.80;90.50
18321;DHT22;54904;54.350;18.664;2023-03-19T07:46:00;9.90;90.60
18321;DHT22;54904;54.350;18.664;2023-03-19T07:48:27;10.00;90.10
18321;DHT22;54904;54.350;18.664;2023-03-19T07:50:54;10.00;90.20
18321;DHT22;54904;54.350;18.664;2023-03-19T07:53:22;10.00;90.10
18321;DHT22;54904;54.350;18.664;2023-03-19T07:55:49;10.00;90.10
18321;DHT22;54904;54.350;18.664;2023-03-19T07:58:17;10.10;90.20
18321;DHT22;54904;54.350;18.664;2023-03-19T08:00:46;10.10;90.20
18321;DHT22;54904;54.350;18.664;2023-03-19T08:03:13;10.20;90.20
18321;DHT22;54904;54.350;18.664;2023-03-19T08:05:41;10.20;90.50
18321;DHT22;54904;54.350;18.664;2023-03-19T08:08:08;10.40;90.30
18321;DHT22;54904;54.350;18.664;2023-03-19T08:10:35;10.60;90.40
18321;DHT22;54904;54.350;18.664;2023-03-19T08:13:02;11.00;90.30
18321;DHT22;54904;54.350;18.664;2023-03-19T08:15:30;11.50;90.00
18321;DHT22;54904;54.350;18.664;2023-03-19T08:17:59;11.90;89.40
18321;DHT22;54904;54.350;18.664;2023-03-19T08:20:26;12.40;88.50
18321;DHT22;54904;54.350;18.664;2023-03-19T08:22:53;12.90;87.70
18321;DHT22;54904;54.350;18.664;2023-03-19T08:25:21;13.30;86.70
18321;DHT22;54904;54.350;18.664;2023-03-19T08:27:48;13.70;85.50
18321;DHT22;54904;54.350;18.664;2023-03-19T08:30:16;13.80;84.30
18321;DHT22;54904;54.350;18.664;2023-03-19T08:32:43;14.10;84.00
18321;DHT22;54904;54.350;18.664;2023-03-19T08:35:12;14.50;82.90
18321;DHT22;54904;54.350;18.664;2023-03-19T08:37:40;14.90;82.20
18321;DHT22;54904;54.350;18.664;2023-03-19T08:40:08;15.30;80.90
18321;DHT22;54904;54.350;18.664;2023-03-19T08:42:36;15.60;79.90
18321;DHT22;54904;54.350;18.664;2023-03-19T08:45:07;15.90;79.40
18321;DHT22;54904;54.350;18.664;2023-03-19T08:47:35;16.10;78.70
18321;DHT22;54904;54.350;18.664;2023-03-19T08:50:03;16.10;77.30
18321;DHT22;54904;54.350;18.664;2023-03-19T08:52:31;16.10;77.20
18321;DHT22;54904;54.350;18.664;2023-03-19T08:54:58;16.10;77.30
18321;DHT22;54904;54.350;18.664;2023-03-19T08:57:26;16.30;77.40
18321;DHT22;54904;54.350;18.664;2023-03-19T08:59:53;16.50;76.10
18321;DHT22;54904;54.350;18.664;2023-03-19T09:02:20;16.50;75.20
18321;DHT22;54904;54.350;18.664;2023-03-19T09:04:47;16.60;75.00
18321;DHT22;54904;54.350;18.664;2023-03-19T09:07:14;16.70;74.70
18321;DHT22;54904;54.350;18.664;2023-03-19T09:09:43;16.90;74.90
18321;DHT22;54904;54.350;18.664;2023-03-19T09:12:13;16.90;74.90
18321;DHT22;54904;54.350;18.664;2023-03-19T09:14:41;16.90;74.70
18321;DHT22;54904;54.350;18.664;2023-03-19T09:17:09;16.80;74.90
18321;DHT22;54904;54.350;18.664;2023-03-19T09:19:36;17.00;75.50
18321;DHT22;54904;54.350;18.664;2023-03-19T09:22:03;17.30;75.20
18321;DHT22;54904;54.350;18.664;2023-03-19T09:24:31;17.60;74.80
18321;DHT22;54904;54.350;18.664;2023-03-19T09:26:59;17.90;75.00
18321;DHT22;54904;54.350;18.664;2023-03-19T09:29:26;18.30;74.30
18321;DHT22;54904;54.350;18.664;2023-03-19T09:31:53;18.50;73.70
18321;DHT22;54904;54.350;18.664;2023-03-19T09:34:21;18.90;73.30
18321;DHT22;54904;54.350;18.664;2023-03-19T09:36:48;19.30;72.40
18321;DHT22;54904;54.350;18.664;2023-03-19T09:39:15;19.50;71.70
18321;DHT22;54904;54.350;18.664;2023-03-19T09:41:55;19.90;71.00
18321;DHT22;54904;54.350;18.664;2023-03-19T09:44:33;20.10;69.90
18321;DHT22;54904;54.350;18.664;2023-03-19T09:47:11;20.40;69.40
18321;DHT22;54904;54.350;18.664;2023-03-19T09:49:43;20.90;67.80
18321;DHT22;54904;54.350;18.664;2023-03-19T09:52:23;21.50;66.80
18321;DHT22;54904;54.350;18.664;2023-03-19T09:54:56;22.10;65.00
18321;DHT22;54904;54.350;18.664;2023-03-19T09:57:27;22.70;63.10
18321;DHT22;54904;54.350;18.664;2023-03-19T09:59:56;23.20;62.10
18321;DHT22;54904;54.350;18.664;2023-03-19T10:02:32;23.80;60.80
18321;DHT22;54904;54.350;18.664;2023-03-19T10:05:17;24.20;58.70
18321;DHT22;54904;54.350;18.664;2023-03-19T10:08:07;24.60;58.00
18321;DHT22;54904;54.350;18.664;2023-03-19T10:10:47;25.00;56.20
18321;DHT22;54904;54.350;18.664;2023-03-19T10:13:30;25.40;55.90
18321;DHT22;54904;54.350;18.664;2023-03-19T10:16:00;25.80;54.10
18321;DHT22;54904;54.350;18.664;2023-03-19T10:18:31;25.90;51.60
18321;DHT22;54904;54.350;18.664;2023-03-19T10:21:02;26.10;51.90
18321;DHT22;54904;54.350;18.664;2023-03-19T10:23:41;26.40;50.70
18321;DHT22;54904;54.350;18.664;2023-03-19T10:26:13;26.70;49.90
18321;DHT22;54904;54.350;18.664;2023-03-19T10:28:43;27.10;49.30
18321;DHT22;54904;54.350;18.664;2023-03-19T10:31:37;27.70;48.60
18321;DHT22;54904;54.350;18.664;2023-03-19T10:34:20;28.30;48.00
18321;DHT22;54904;54.350;18.664;2023-03-19T10:36:48;28.90;46.60
18321;DHT22;54904;54.350;18.664;2023-03-19T10:39:16;29.40;45.20
18321;DHT22;54904;54.350;18.664;2023-03-19T10:41:49;29.80;44.60
18321;DHT22;54904;54.350;18.664;2023-03-19T10:44:27;30.20;43.10
18321;DHT22;54904;54.350;18.664;2023-03-19T10:47:10;30.30;41.70
18321;DHT22;54904;54.350;18.664;2023-03-19T10:49:37;30.30;41.30
18321;DHT22;54904;54.350;18.664;2023-03-19T10:52:06;30.70;41.10
18321;DHT22;54904;54.350;18.664;2023-03-19T10:54:43;30.90;40.30
18321;DHT22;54904;54.350;18.664;2023-03-19T10:57:23;31.20;39.60
18321;DHT22;54904;54.350;18.664;2023-03-19T10:59:51;31.40;39.20
18321;DHT22;54904;54.350;18.664;2023-03-19T11:02:22;31.60;38.80
18321;DHT22;54904;54.350;18.664;2023-03-19T11:05:05;31.50;37.60
18321;DHT22;54904;54.350;18.664;2023-03-19T11:07:37;31.50;37.10
18321;DHT22;54904;54.350;18.664;2023-03-19T11:10:11;31.50;36.80
18321;DHT22;54904;54.350;18.664;2023-03-19T11:12:39;31.50;36.50
18321;DHT22;54904;54.350;18.664;2023-03-19T11:15:17;31.40;35.90
18321;DHT22;54904;54.350;18.664;2023-03-19T11:17:48;31.30;35.80
18321;DHT22;54904;54.350;18.664;2023-03-19T11:20:22;31.40;35.00
18321;DHT22;54904;54.350;18.664;2023-03-19T11:22:50;31.50;35.50
18321;DHT22;54904;54.350;18.664;2023-03-19T11:25:23;32.10;35.00
18321;DHT22;54904;54.350;18.664;2023-03-19T11:28:04;32.40;34.80
18321;DHT22;54904;54.350;18.664;2023-03-19T11:30:37;32.70;33.90
18321;DHT22;54904;54.350;18.664;2023-03-19T11:36:16;33.40;32.90
18321;DHT22;54904;54.350;18.664;2023-03-19T11:38:57;33.60;32.60
18321;DHT22;54904;54.350;18.664;2023-03-19T11:41:36;33.30;31.70
18321;DHT22;54904;54.350;18.664;2023-03-19T11:44:10;33.10;31.50
18321;DHT22;54904;54.350;18.664;2023-03-19T11:46:43;32.60;32.30
18321;DHT22;54904;54.350;18.664;2023-03-19T11:49:40;31.90;32.40
18321;DHT22;54904;54.350;18.664;2023-03-19T11:52:17;31.30;33.10
18321;DHT22;54904;54.350;18.664;2023-03-19T11:54:59;31.30;33.40
18321;DHT22;54904;54.350;18.664;2023-03-19T11:57:46;31.10;33.20
18321;DHT22;54904;54.350;18.664;2023-03-19T12:00:27;30.90;33.70
18321;DHT22;54904;54.350;18.664;2023-03-19T12:03:33;30.10;34.30
18321;DHT22;54904;54.350;18.664;2023-03-19T12:06:10;29.00;35.10
18321;DHT22;54904;54.350;18.664;2023-03-19T12:08:44;28.10;36.20
18321;DHT22;54904;54.350;18.664;2023-03-19T12:11:18;28.60;36.60
18321;DHT22;54904;54.350;18.664;2023-03-19T12:14:04;29.50;35.70
18321;DHT22;54904;54.350;18.664;2023-03-19T12:16:41;29.80;35.30
18321;DHT22;54904;54.350;18.664;2023-03-19T12:22:35;30.90;34.50
18321;DHT22;54904;54.350;18.664;2023-03-19T12:25:23;31.50;34.00
18321;DHT22;54904;54.350;18.664;2023-03-19T12:27:54;32.10;33.90
18321;DHT22;54904;54.350;18.664;2023-03-19T12:30:31;32.90;33.50
18321;DHT22;54904;54.350;18.664;2023-03-19T12:33:13;33.40;33.30
18321;DHT22;54904;54.350;18.664;2023-03-19T12:35:48;33.90;32.70
18321;DHT22;54904;54.350;18.664;2023-03-19T12:38:18;34.00;32.00
18321;DHT22;54904;54.350;18.664;2023-03-19T12:40:50;34.10;31.70
18321;DHT22;54904;54.350;18.664;2023-03-19T12:43:24;34.20;31.30
18321;DHT22;54904;54.350;18.664;2023-03-19T12:45:56;34.10;31.00
18321;DHT22;54904;54.350;18.664;2023-03-19T12:48:25;33.80;30.90
18321;DHT22;54904;54.350;18.664;2023-03-19T12:50:55;33.80;31.30
18321;DHT22;54904;54.350;18.664;2023-03-19T12:53:33;33.90;31.20
18321;DHT22;54904;54.350;18.664;2023-03-19T12:56:07;34.20;30.90
18321;DHT22;54904;54.350;18.664;2023-03-19T12:58:41;34.50;30.70
18321;DHT22;54904;54.350;18.664;2023-03-19T13:01:15;34.50;30.20
18321;DHT22;54904;54.350;18.664;2023-03-19T13:03:51;34.30;30.50
18321;DHT22;54904;54.350;18.664;2023-03-19T13:06:23;34.30;30.70
18321;DHT22;54904;54.350;18.664;2023-03-19T13:08:57;34.40;30.40
18321;DHT22;54904;54.350;18.664;2023-03-19T13:11:34;34.20;30.60
18321;DHT22;54904;54.350;18.664;2023-03-19T13:14:09;34.10;30.80
18321;DHT22;54904;54.350;18.664;2023-03-19T13:16:44;33.90;30.90
18321;DHT22;54904;54.350;18.664;2023-03-19T13:19:17;33.70;31.00
18321;DHT22;54904;54.350;18.664;2023-03-19T13:21:47;33.00;31.30
18321;DHT22;54904;54.350;18.664;2023-03-19T13:24:20;32.10;32.10
18321;DHT22;54904;54.350;18.664;2023-03-19T13:26:52;31.00;32.90
18321;DHT22;54904;54.350;18.664;2023-03-19T13:29:21;29.80;34.00
18321;DHT22;54904;54.350;18.664;2023-03-19T13:31:51;28.60;35.30
18321;DHT22;54904;54.350;18.664;2023-03-19T13:34:23;27.60;36.40
18321;DHT22;54904;54.350;18.664;2023-03-19T13:36:54;26.80;37.40
18321;DHT22;54904;54.350;18.664;2023-03-19T13:39:25;26.20;38.10
18321;DHT22;54904;54.350;18.664;2023-03-19T13:42:08;25.80;38.50
18321;DHT22;54904;54.350;18.664;2023-03-19T13:44:47;25.50;39.00
18321;DHT22;54904;54.350;18.664;2023-03-19T13:47:42;25.00;39.60
18321;DHT22;54904;54.350;18.664;2023-03-19T13:50:29;24.60;40.40
18321;DHT22;54904;54.350;18.664;2023-03-19T13:53:20;24.10;41.00
18321;DHT22;54904;54.350;18.664;2023-03-19T13:55:52;23.70;41.70
18321;DHT22;54904;54.350;18.664;2023-03-19T13:58:23;23.40;42.20
18321;DHT22;54904;54.350;18.664;2023-03-19T14:01:10;23.20;42.60
18321;DHT22;54904;54.350;18.664;2023-03-19T14:03:40;23.00;42.90
18321;DHT22;54904;54.350;18.664;2023-03-19T14:06:34;22.80;43.10
18321;DHT22;54904;54.350;18.664;2023-03-19T14:09:03;22.60;43.60
18321;DHT22;54904;54.350;18.664;2023-03-19T14:11:32;22.40;44.10
18321;DHT22;54904;54.350;18.664;2023-03-19T14:14:04;22.20;44.50
18321;DHT22;54904;54.350;18.664;2023-03-19T14:16:34;22.00;45.30
18321;DHT22;54904;54.350;18.664;2023-03-19T14:19:08;22.00;45.00
18321;DHT22;54904;54.350;18.664;2023-03-19T14:21:40;21.80;45.20
18321;DHT22;54904;54.350;18.664;2023-03-19T14:24:28;21.70;45.20
18321;DHT22;54904;54.350;18.664;2023-03-19T14:27:00;21.60;45.40
18321;DHT22;54904;54.350;18.664;2023-03-19T14:29:33;21.40;45.50
18321;DHT22;54904;54.350;18.664;2023-03-19T14:32:06;21.30;45.90
18321;DHT22;54904;54.350;18.664;2023-03-19T14:34:37;21.30;46.40
18321;DHT22;54904;54.350;18.664;2023-03-19T14:37:16;21.20;46.50
18321;DHT22;54904;54.350;18.664;2023-03-19T14:39:47;21.10;46.80
18321;DHT22;54904;54.350;18.664;2023-03-19T14:42:18;21.00;47.10
18321;DHT22;54904;54.350;18.664;2023-03-19T14:47:59;20.80;47.80
18321;DHT22;54904;54.350;18.664;2023-03-19T14:53:29;20.60;48.40
18321;DHT22;54904;54.350;18.664;2023-03-19T14:56:04;20.50;48.60
18321;DHT22;54904;54.350;18.664;2023-03-19T14:58:36;20.40;48.80
18321;DHT22;54904;54.350;18.664;2023-03-19T15:01:05;20.30;49.10
18321;DHT22;54904;54.350;18.664;2023-03-19T15:03:35;20.30;49.20
18321;DHT22;54904;54.350;18.664;2023-03-19T15:06:05;20.30;49.40
18321;DHT22;54904;54.350;18.664;2023-03-19T15:08:34;20.20;49.50
18321;DHT22;54904;54.350;18.664;2023-03-19T15:11:23;20.10;49.70
18321;DHT22;54904;54.350;18.664;2023-03-19T15:14:09;20.10;50.00
18321;DHT22;54904;54.350;18.664;2023-03-19T15:16:46;20.00;50.20
18321;DHT22;54904;54.350;18.664;2023-03-19T15:19:24;19.90;50.40
18321;DHT22;54904;54.350;18.664;2023-03-19T15:22:02;19.90;50.40
18321;DHT22;54904;54.350;18.664;2023-03-19T15:24:30;19.80;50.20
18321;DHT22;54904;54.350;18.664;2023-03-19T15:26:59;19.70;50.00
18321;DHT22;54904;54.350;18.664;2023-03-19T15:29:30;19.70;50.00
18321;DHT22;54904;54.350;18.664;2023-03-19T15:32:00;19.60;50.00
18321;DHT22;54904;54.350;18.664;2023-03-19T15:34:29;19.60;50.10
18321;DHT22;54904;54.350;18.664;2023-03-19T15:37:02;19.50;50.10
18321;DHT22;54904;54.350;18.664;2023-03-19T15:39:34;19.40;50.20
18321;DHT22;54904;54.350;18.664;2023-03-19T15:42:03;19.30;50.20
18321;DHT22;54904;54.350;18.664;2023-03-19T15:44:35;19.30;50.20
18321;DHT22;54904;54.350;18.664;2023-03-19T15:47:07;19.20;50.20
18321;DHT22;54904;54.350;18.664;2023-03-19T15:49:40;19.10;50.20
18321;DHT22;54904;54.350;18.664;2023-03-19T15:52:11;19.00;50.20
18321;DHT22;54904;54.350;18.664;2023-03-19T15:54:40;19.00;50.30
18321;DHT22;54904;54.350;18.664;2023-03-19T15:57:08;18.90;50.30
18321;DHT22;54904;54.350;18.664;2023-03-19T15:59:42;18.80;50.40
18321;DHT22;54904;54.350;18.664;2023-03-19T16:02:18;18.70;50.50
18321;DHT22;54904;54.350;18.664;2023-03-19T16:04:49;18.60;50.70